sensor_id;sensor_type;location;lat;lon;timestamp;pressure;altitude;pressure_sealevel;temperature;humidity
71642;BME280;60657;50.122;14.468;2023-08-17T00:01:58;98473.50271990681;;;22.452506294346534;76.48264286259251
71642;BME280;60657;50.122;14.468;2023-08-17T00:05:00;98477.83676532334;;;22.618066681925683;76.3224231326772
71642;BME280;60657;50.122;14.468;2023-08-17T00:08:02;98475.50213203141;;;22.545967803463796;76.54558632791638
71642;BME280;60657;50.122;14.468;2023-08-17T00:11:05;98468.1677252578;;;22.71953917753872;74.76600289921416
71642;BME280;60657;50.122;14.468;2023-08-17T00:14:07;98465.62966392917;;;22.698176546883346;73.54146639200427
71642;BME280;60657;50.122;14.468;2023-08-17T00:17:09;98468.92238485026;;;22.68749523155566;74.02975509269857
71642;BME280;60657;50.122;14.468;2023-08-17T00:20:11;98468.03058388729;;;22.655451285572596;75.14938582436866
71642;BME280;60657;50.122;14.468;2023-08-17T00:23:13;98468.5783515908;;;22.75692378118562;75.31151293202106
71642;BME280;60657;50.122;14.468;2023-08-17T00:26:15;98461.92438714884;;;22.75425345235371;75.12458991378652
71642;BME280;60657;50.122;14.468;2023-08-17T00:29:17;98461.92438714884;;;22.73823147936217;75.04829480430304
71642;BME280;60657;50.122;14.468;2023-08-17T00:32:19;98469.33224836487;;;22.596704051270308;76.12405584802015
71642;BME280;60657;50.122;14.468;2023-08-17T00:35:21;98464.73791797564;;;22.706187533379108;75.4526588845655
71642;BME280;60657;50.122;14.468;2023-08-17T00:38:23;98462.53993292878;;;22.764934767681396;74.89951934081026
71642;BME280;60657;50.122;14.468;2023-08-17T00:41:25;98467.68575594829;;;22.56733043411917;75.47936217288472
71642;BME280;60657;50.122;14.468;2023-08-17T00:44:27;98461.70768977342;;;22.43114366369116;76.12214847028305
71642;BME280;60657;50.122;14.468;2023-08-17T00:47:29;98462.32919101132;;;22.513923857480734;75.98863202868696
71642;BME280;60657;50.122;14.468;2023-08-17T00:50:31;98461.8551453783;;;22.575341420614933;75.44884412909133
71642;BME280;60657;50.122;14.468;2023-08-17T00:53:34;98469.60820974784;;;22.690165560387584;74.60769054703593
71642;BME280;60657;50.122;14.468;2023-08-17T00:56:36;98470.76430336639;;;22.463187609674222;75.63576714732585
71642;BME280;60657;50.122;14.468;2023-08-17T00:59:39;98461.65063087115;;;22.67147325856412;75.0540169375143
71642;BME280;60657;50.122;14.468;2023-08-17T01:02:41;98469.25187329484;;;22.436484321354996;75.66247043564508
71642;BME280;60657;50.122;14.468;2023-08-17T01:05:44;98469.74557333106;;;22.666132600900283;74.89570458533608
71642;BME280;60657;50.122;14.468;2023-08-17T01:08:46;98470.14223953216;;;22.40711070420386;75.84557869840543
71642;BME280;60657;50.122;14.468;2023-08-17T01:11:53;98468.44092579414;;;22.564660105287246;75.59189745937286
71642;BME280;60657;50.122;14.468;2023-08-17T01:15:05;98466.8487673657;;;22.32967116807812;76.12405584802015
71642;BME280;60657;50.122;14.468;2023-08-17T01:18:17;98462.5341029365;;;22.04661631189441;77.20553902494851
71642;BME280;60657;50.122;14.468;2023-08-17T01:21:24;98461.58065043703;;;22.08400091554131;77.0148012512398
71642;BME280;60657;50.122;14.468;2023-08-17T01:24:40;98460.06341750018;;;22.030594338902873;77.10635538261998
71642;BME280;60657;50.122;14.468;2023-08-17T01:27:43;98458.8677938138;;;21.93713282978561;77.0300602731365
71642;BME280;60657;50.122;14.468;2023-08-17T01:30:48;98449.92142130336;;;22.02258335240711;76.74586099031052
71642;BME280;60657;50.122;14.468;2023-08-17T01:33:58;98446.36671937582;;;22.0572976272221;76.73823147936217
71642;BME280;60657;50.122;14.468;2023-08-17T01:37:07;98442.14941589482;;;22.204165712977797;76.22896162355993
71642;BME280;60657;50.122;14.468;2023-08-17T01:40:12;98443.66251534465;;;22.257572289616235;76.12024109254597
71642;BME280;60657;50.122;14.468;2023-08-17T01:43:17;98448.50878339575;;;22.1667811093309;76.27664606698711
71642;BME280;60657;50.122;14.468;2023-08-17T01:46:20;98447.22220174951;;;22.228198672465098;76.27664606698711
71642;BME280;60657;50.122;14.468;2023-08-17T01:49:24;98447.22220174951;;;22.23620965896086;75.85320820935378
71642;BME280;60657;50.122;14.468;2023-08-17T01:52:27;98447.45100997023;;;21.966506446936748;76.69817654688335
71642;BME280;60657;50.122;14.468;2023-08-17T01:55:30;98433.7113035612;;;21.90508888380255;77.16548409246967
71642;BME280;60657;50.122;14.468;2023-08-17T01:58:32;98413.63716032104;;;21.662088960097662;77.86549172198062
71642;BME280;60657;50.122;14.468;2023-08-17T02:01:34;98414.20575275566;;;21.71015487907225;77.7357900358587
71642;BME280;60657;50.122;14.468;2023-08-17T02:04:36;98403.11750852672;;;21.704814221408412;77.56603341725796
71642;BME280;60657;50.122;14.468;2023-08-17T02:07:38;98409.70997054814;;;21.555275806820788;77.89219501029984
71642;BME280;60657;50.122;14.468;2023-08-17T02:10:40;98415.28406597144;;;21.654077973601886;77.78919661249714
71642;BME280;60657;50.122;14.468;2023-08-17T02:13:42;98415.60067125094;;;21.549935149156937;78.13824673838407
71642;BME280;60657;50.122;14.468;2023-08-17T02:16:44;98415.09147553542;;;21.4965285725185;78.46822308690012
71642;BME280;60657;50.122;14.468;2023-08-17T02:19:46;98412.04694761767;;;21.45380331120775;78.48157473105974
71642;BME280;60657;50.122;14.468;2023-08-17T02:22:49;98410.39978698696;;;21.491187914854663;78.14015411612115
71642;BME280;60657;50.122;14.468;2023-08-17T02:25:51;98415.95961624163;;;21.336308842603188;78.55405508506905
71642;BME280;60657;50.122;14.468;2023-08-17T02:28:53;98419.13141609674;;;21.322957198443575;78.32135500114443
71642;BME280;60657;50.122;14.468;2023-08-17T02:31:55;98419.13141609674;;;21.381704432745863;77.96467536430914
71642;BME280;60657;50.122;14.468;2023-08-17T02:34:57;98434.57182553038;;;21.346990157930875;77.93606469825284
71642;BME280;60657;50.122;14.468;2023-08-17T02:37:59;98423.15948888441;;;21.22148470283055;78.41100175478752
71642;BME280;60657;50.122;14.468;2023-08-17T02:41:01;98431.5795611925;;;21.200122072175176;78.72571908140688
71642;BME280;60657;50.122;14.468;2023-08-17T02:44:04;98436.41806906178;;;21.071946288242927;79.23117418173496
71642;BME280;60657;50.122;14.468;2023-08-17T02:47:06;98433.52835086029;;;21.133363851377126;79.1510643167773
71642;BME280;60657;50.122;14.468;2023-08-17T02:50:09;98427.11612153669;;;21.007858396276802;79.18348973830777
71642;BME280;60657;50.122;14.468;2023-08-17T02:53:11;98435.41552746737;;;21.07995727473869;79.19302662699322
71642;BME280;60657;50.122;14.468;2023-08-17T02:56:13;98447.07123212973;;;21.114671549553677;79.10910200656139
71642;BME280;60657;50.122;14.468;2023-08-17T02:59:15;98425.59751586369;;;21.357671473258563;78.34805828946365
71642;BME280;60657;50.122;14.468;2023-08-17T03:02:17;98436.46247532206;;;21.176089112687876;78.86114290074006
71642;BME280;60657;50.122;14.468;2023-08-17T03:05:20;98434.41224494074;;;21.133363851377126;79.10337987335012
71642;BME280;60657;50.122;14.468;2023-08-17T03:08:22;98429.34866553219;;;21.202792401007102;78.82681010147249
71642;BME280;60657;50.122;14.468;2023-08-17T03:11:24;98436.2991315972;;;21.120012207217513;79.210193026627
71642;BME280;60657;50.122;14.468;2023-08-17T03:14:31;98442.42347355033;;;21.04257267109179;79.43335622186618
71642;BME280;60657;50.122;14.468;2023-08-17T03:17:34;98447.41553800274;;;21.218814373998626;79.08239871824216
71642;BME280;60657;50.122;14.468;2023-08-17T03:20:36;98436.86023799071;;;21.3256275272755;78.5025558861677
71642;BME280;60657;50.122;14.468;2023-08-17T03:23:38;98426.42121654822;;;21.38437476157779;78.27557793545434
71642;BME280;60657;50.122;14.468;2023-08-17T03:26:41;98435.48214525115;;;21.437781338216226;77.95895323109788
71642;BME280;60657;50.122;14.468;2023-08-17T03:29:43;98433.19641015911;;;21.424429694056613;78.04859998474097
71642;BME280;60657;50.122;14.468;2023-08-17T03:32:46;98446.1061366899;;;21.338979171435113;78.39955748836499
71642;BME280;60657;50.122;14.468;2023-08-17T03:35:48;98439.75811678894;;;21.272220950637063;78.82871747920959
71642;BME280;60657;50.122;14.468;2023-08-17T03:38:50;98446.47073532717;;;21.285572594796676;78.84969863431753
71642;BME280;60657;50.122;14.468;2023-08-17T03:41:52;98443.75627294555;;;21.312275883115888;79.16250858319982
71642;BME280;60657;50.122;14.468;2023-08-17T03:44:55;98443.32830018255;;;21.376363775082012;78.69710841535057
71642;BME280;60657;50.122;14.468;2023-08-17T03:47:59;98460.29619670844;;;21.3256275272755;78.6646829938201
71642;BME280;60657;50.122;14.468;2023-08-17T03:51:01;98456.84630142785;;;20.991836423285264;79.9178301670863
71642;BME280;60657;50.122;14.468;2023-08-17T03:54:03;98451.19375406814;;;21.010528725108728;79.98077363241016
71642;BME280;60657;50.122;14.468;2023-08-17T03:57:07;98450.12453449582;;;20.826276035706115;80.80666819256885
71642;BME280;60657;50.122;14.468;2023-08-17T04:00:09;98468.26037232438;;;20.882352941176464;80.97642481116961
71642;BME280;60657;50.122;14.468;2023-08-17T04:03:12;98468.37559258557;;;20.839627679865714;81.01075761043717
71642;BME280;60657;50.122;14.468;2023-08-17T04:06:14;98475.68004956421;;;20.86633096818494;80.69794766155489
71642;BME280;60657;50.122;14.468;2023-08-17T04:09:16;98466.32373200543;;;21.095979247730227;80.27450980392157
71642;BME280;60657;50.122;14.468;2023-08-17T04:12:19;98465.72535505057;;;21.248187991149763;79.30746929121844
71642;BME280;60657;50.122;14.468;2023-08-17T04:15:21;98472.50722076307;;;21.12802319371329;79.72709239337759
71642;BME280;60657;50.122;14.468;2023-08-17T04:18:23;98480.91479875415;;;20.898374914168002;80.39658197909515
71642;BME280;60657;50.122;14.468;2023-08-17T04:21:25;98481.20070865986;;;20.86633096818494;80.67124437323568
71642;BME280;60657;50.122;14.468;2023-08-17T04:24:28;98479.72203495723;;;20.791561760891128;81.04318303196766
71642;BME280;60657;50.122;14.468;2023-08-17T04:27:32;98481.20070865986;;;20.86099031052109;80.8295567254139
71642;BME280;60657;50.122;14.468;2023-08-17T04:30:34;98481.20070865986;;;20.89036392767224;81.03936827649348
71642;BME280;60657;50.122;14.468;2023-08-17T04:33:36;98487.25664592421;;;20.810254062714577;81.33501182574197
71642;BME280;60657;50.122;14.468;2023-08-17T04:36:39;98501.81541678599;;;21.02655069810025;80.7990386816205
71642;BME280;60657;50.122;14.468;2023-08-17T04:39:41;98497.26557011946;;;20.863660639353014;81.11375600823987
71642;BME280;60657;50.122;14.468;2023-08-17T04:42:43;98489.35585984595;;;20.698100251773866;81.8023193713283
71642;BME280;60657;50.122;14.468;2023-08-17T04:45:45;98486.04868606012;;;21.10399023422599;80.79522392614633
71642;BME280;60657;50.122;14.468;2023-08-17T04:48:47;98494.76430149259;;;21.19745174334325;80.06279087510491
71642;BME280;60657;50.122;14.468;2023-08-17T04:51:49;98510.77172522047;;;21.029221026932177;81.20531013962005
71642;BME280;60657;50.122;14.468;2023-08-17T04:54:52;98496.76145684769;;;21.352330815594726;80.30121309224079
71642;BME280;60657;50.122;14.468;2023-08-17T04:57:58;98497.34557360304;;;21.4351110093843;79.63363088426031
71642;BME280;60657;50.122;14.468;2023-08-17T05:01:00;98509.77036695601;;;21.448462653543913;79.65651941710536
71642;BME280;60657;50.122;14.468;2023-08-17T05:04:02;98511.81891769347;;;21.53925383382925;79.48104066529335
71642;BME280;60657;50.122;14.468;2023-08-17T05:07:05;98519.23748730194;;;21.614023041123062;79.4448004882887
71642;BME280;60657;50.122;14.468;2023-08-17T05:10:08;98524.30538348286;;;21.651407644769975;79.31509880216679
71642;BME280;60657;50.122;14.468;2023-08-17T05:13:10;98533.25108007171;;;21.67544060425726;78.90691996643015
71642;BME280;60657;50.122;14.468;2023-08-17T05:16:13;98537.87455614153;;;21.400396734569313;79.91973754482338
71642;BME280;60657;50.122;14.468;2023-08-17T05:19:15;98535.57814389144;;;21.405737392233164;80.0933089188983
71642;BME280;60657;50.122;14.468;2023-08-17T05:22:17;98524.18335089288;;;21.688792248416874;80.0189211871519
71642;BME280;60657;50.122;14.468;2023-08-17T05:25:19;98539.02166371878;;;21.822308690012974;79.49820706492714
71642;BME280;60657;50.122;14.468;2023-08-17T05:28:21;98538.50256967056;;;21.774242771038374;79.14534218356603
71642;BME280;60657;50.122;14.468;2023-08-17T05:31:24;98523.3190667428;;;21.958495460440986;79.00991836423286
71642;BME280;60657;50.122;14.468;2023-08-17T05:34:26;98525.47795088985;;;22.19348439765011;77.97039749752041
71642;BME280;60657;50.122;14.468;2023-08-17T05:37:28;98528.83800862281;;;22.153429465171286;78.07721065079728
71642;BME280;60657;50.122;14.468;2023-08-17T05:40:31;98525.52707473449;;;22.41245136186771;77.0720225833524
71642;BME280;60657;50.122;14.468;2023-08-17T05:43:34;98519.36812050977;;;22.43915465018692;76.89082169832913
71642;BME280;60657;50.122;14.468;2023-08-17T05:46:36;98530.90158748136;;;22.487220569161522;76.66193636987869
71642;BME280;60657;50.122;14.468;2023-08-17T05:49:38;98528.4525413261;;;22.313649195086597;77.33524071107043
71642;BME280;60657;50.122;14.468;2023-08-17T05:52:41;98530.92444901647;;;22.359044785229273;77.3524071107042
71642;BME280;60657;50.122;14.468;2023-08-17T05:55:43;98518.28132352613;;;22.45784695201037;76.79163805600061
71642;BME280;60657;50.122;14.468;2023-08-17T05:58:45;98522.55944907019;;;22.65812161440452;76.13550011444266
71642;BME280;60657;50.122;14.468;2023-08-17T06:01:48;98532.99854911002;;;22.794308384832533;76.19462882429237
71642;BME280;60657;50.122;14.468;2023-08-17T06:04:50;98541.44788082912;;;23.013275349050133;75.72541390096895
71642;BME280;60657;50.122;14.468;2023-08-17T06:07:52;98543.90868222128;;;22.79964904249637;75.78454261081865
71642;BME280;60657;50.122;14.468;2023-08-17T06:10:54;98541.58433744726;;;22.97055008773937;75.60524910353246
71642;BME280;60657;50.122;14.468;2023-08-17T06:13:57;98534.7878755782;;;23.181506065461207;75.11696040283817
71642;BME280;60657;50.122;14.468;2023-08-17T06:17:01;98535.45376065363;;;23.381780727855343;74.31586175326161
71642;BME280;60657;50.122;14.468;2023-08-17T06:20:05;98515.01882416788;;;23.579385061417568;73.19432364385443
71642;BME280;60657;50.122;14.468;2023-08-17T06:23:08;98522.59322647018;;;23.86243991760128;72.6545357442588
71642;BME280;60657;50.122;14.468;2023-08-17T06:26:11;98524.01880970754;;;23.963912413214317;72.37033646143283
71642;BME280;60657;50.122;14.468;2023-08-17T06:29:13;98522.51989686495;;;23.969253070878153;72.67360952162966
71642;BME280;60657;50.122;14.468;2023-08-17T06:32:15;98523.72771937678;;;24.287022201876866;71.05615320057984
71642;BME280;60657;50.122;14.468;2023-08-17T06:35:18;98528.06139708348;;;24.489967193102927;70.06813153276875
71642;BME280;60657;50.122;14.468;2023-08-17T06:38:20;98514.1383363079;;;24.460593575951776;70.32753490501258
71642;BME280;60657;50.122;14.468;2023-08-17T06:41:22;98509.76921996113;;;24.64484626535439;70.1348897535668
71642;BME280;60657;50.122;14.468;2023-08-17T06:44:25;98507.09809967355;;;24.468604562447553;70.9588769359884
71642;BME280;60657;50.122;14.468;2023-08-17T06:47:27;98494.37661567586;;;24.452582589456014;70.85206378271153
71642;BME280;60657;50.122;14.468;2023-08-17T06:50:29;98502.29024620629;;;24.631494621194776;70.4724956130312
71642;BME280;60657;50.122;14.468;2023-08-17T06:53:32;98496.81056812963;;;24.580758373388264;70.73952849622339
71642;BME280;60657;50.122;14.468;2023-08-17T06:56:34;98493.58288210038;;;25.037384603646913;69.56839856565195
71642;BME280;60657;50.122;14.468;2023-08-17T06:59:36;98505.35850005154;;;25.35515373464561;67.70870527199206
71642;BME280;60657;50.122;14.468;2023-08-17T07:02:39;98503.79643326436;;;25.224307621881437;67.54467078660258
71642;BME280;60657;50.122;14.468;2023-08-17T07:05:41;98500.41775839453;;;25.688944838635848;67.1879911497673
71642;BME280;60657;50.122;14.468;2023-08-17T07:08:43;98489.91443342398;;;25.92927443350881;66.08171206225681
71642;BME280;60657;50.122;14.468;2023-08-17T07:11:46;98493.97804816566;;;26.078812848096433;64.49668116273747
71642;BME280;60657;50.122;14.468;2023-08-17T07:14:48;98496.88101949541;;;26.449988555733583;65.29015030136568
71642;BME280;60657;50.122;14.468;2023-08-17T07:17:54;98485.13410400988;;;26.623559929808494;62.01327534905013
71642;BME280;60657;50.122;14.468;2023-08-17T07:20:56;98480.29897244558;;;26.612878614480806;62.15442130159457
71642;BME280;60657;50.122;14.468;2023-08-17T07:24:08;98491.79701566919;;;26.97604333562218;61.427710383764406
71642;BME280;60657;50.122;14.468;2023-08-17T07:27:13;98486.8494175468;;;27.10955977721828;60.136415655756466
71642;BME280;60657;50.122;14.468;2023-08-17T07:30:16;98498.14942221437;;;27.205691615167467;59.167467765316246
71642;BME280;60657;50.122;14.468;2023-08-17T07:33:18;98496.5084098917;;;27.00007629510948;59.419241626611736
71642;BME280;60657;50.122;14.468;2023-08-17T07:36:20;98499.53027791689;;;27.00007629510948;59.867475394827196
71642;BME280;60657;50.122;14.468;2023-08-17T07:39:23;98494.46304207768;;;27.301823453116654;58.00396734569314
71642;BME280;60657;50.122;14.468;2023-08-17T07:42:25;98500.3004641521;;;27.29915312428473;58.86991683833067
71642;BME280;60657;50.122;14.468;2023-08-17T07:45:29;98498.48257116918;;;27.646295872434578;58.64675364309147
71642;BME280;60657;50.122;14.468;2023-08-17T07:48:32;98505.56770998261;;;27.363241016250853;58.839398794537274
71642;BME280;60657;50.122;14.468;2023-08-17T07:51:34;98498.72170397187;;;27.681010147249566;58.579995422293436
71642;BME280;60657;50.122;14.468;2023-08-17T07:54:36;98490.85793334743;;;27.438010223544666;58.978637369344625
71642;BME280;60657;50.122;14.468;2023-08-17T07:57:38;98501.43148434468;;;27.211032272831318;60.17647058823529
71642;BME280;60657;50.122;14.468;2023-08-17T08:00:41;98506.72899880532;;;27.24574654764629;59.75875486381322
71642;BME280;60657;50.122;14.468;2023-08-17T08:03:43;98489.193178789;;;27.31250476844434;59.41351949340047
71642;BME280;60657;50.122;14.468;2023-08-17T08:06:45;98489.91923197015;;;27.216372930495154;59.772106507972836
71642;BME280;60657;50.122;14.468;2023-08-17T08:09:48;98491.18164077346;;;27.36591134508278;59.968566414892805
71642;BME280;60657;50.122;14.468;2023-08-17T08:12:50;98482.94923891599;;;28.049515526054776;58.639124132143124
71642;BME280;60657;50.122;14.468;2023-08-17T08:15:52;98485.32930587353;;;28.164339665827427;57.65491721980621
71642;BME280;60657;50.122;14.468;2023-08-17T08:19:00;98479.69181617063;;;28.145647364003963;57.550011444266424
71642;BME280;60657;50.122;14.468;2023-08-17T08:22:07;98481.43127086744;;;28.12428473334859;56.886243991760125
71642;BME280;60657;50.122;14.468;2023-08-17T08:25:09;98482.65052961717;;;27.99610894941634;57.502327000839244
71642;BME280;60657;50.122;14.468;2023-08-17T08:28:12;98477.96727823897;;;28.220416571297775;56.422751201647976
71642;BME280;60657;50.122;14.468;2023-08-17T08:31:14;98479.822473256;;;28.524834058136875;55.75898374914168
71642;BME280;60657;50.122;14.468;2023-08-17T08:34:17;98481.35602795942;;;28.661020828564887;55.57587548638132
71642;BME280;60657;50.122;14.468;2023-08-17T08:37:19;98484.02191843519;;;28.4420538643473;56.63065537499046
71642;BME280;60657;50.122;14.468;2023-08-17T08:40:25;98478.58825123747;;;28.65835049973296;55.533913176165406
71642;BME280;60657;50.122;14.468;2023-08-17T08:43:30;98476.81694220201;;;28.949416342412448;54.98458838788434
71642;BME280;60657;50.122;14.468;2023-08-17T08:46:33;98480.88819828011;;;29.018844892042424;54.963607232776376
71642;BME280;60657;50.122;14.468;2023-08-17T08:49:36;98472.69917311978;;;29.45677882047761;53.16876478217746
71642;BME280;60657;50.122;14.468;2023-08-17T08:52:42;98454.20367548856;;;29.801251239795533;52.436331731136036
71642;BME280;60657;50.122;14.468;2023-08-17T08:55:53;98450.12177735902;;;30.11902037079423;52.8979171435111
71642;BME280;60657;50.122;14.468;2023-08-17T08:59:01;98445.4364783993;;;30.56496528572518;51.48645761806668
71642;BME280;60657;50.122;14.468;2023-08-17T09:02:04;98442.52703614821;;;30.642404821850917;50.46028839551385
71642;BME280;60657;50.122;14.468;2023-08-17T09:05:07;98444.62901225046;;;30.949492637521928;50.29434653238727
71642;BME280;60657;50.122;14.468;2023-08-17T09:08:12;98428.3843304152;;;30.970855268177303;50.45838101777676
71642;BME280;60657;50.122;14.468;2023-08-17T09:11:16;98427.91030329111;;;30.976195925841154;49.76981765468833
71642;BME280;60657;50.122;14.468;2023-08-17T09:14:19;98429.72339313483;;;31.387426565957128;49.07934691386282
71642;BME280;60657;50.122;14.468;2023-08-17T09:17:22;98423.90441921959;;;31.65178912031739;49.186160067139696
71642;BME280;60657;50.122;14.468;2023-08-17T09:20:37;98427.12226004442;;;31.424811169604027;50.72350652323186
71642;BME280;60657;50.122;14.468;2023-08-17T09:23:41;98422.05707061972;;;31.91615167467765;50.080720225833524
71642;BME280;60657;50.122;14.468;2023-08-17T09:26:43;98416.66154065386;;;32.01228351262684;49.577172503242544
71642;BME280;60657;50.122;14.468;2023-08-17T09:29:45;98415.52273021496;;;32.62645914396887;49.89951934081025
71642;BME280;60657;50.122;14.468;2023-08-17T09:32:48;98401.01363793234;;;32.71725032425421;48.41367208361944
71642;BME280;60657;50.122;14.468;2023-08-17T09:35:50;98401.14319109029;;;32.70389868009461;48.88097962920577
71642;BME280;60657;50.122;14.468;2023-08-17T09:38:54;98397.78708053323;;;32.896162355992985;48.51094834821088
71642;BME280;60657;50.122;14.468;2023-08-17T09:41:57;98388.06279375919;;;33.01632715342947;48.33546959639887
71642;BME280;60657;50.122;14.468;2023-08-17T09:45:02;98394.35009116534;;;33.24864576180667;47.664072632944226
71642;BME280;60657;50.122;14.468;2023-08-17T09:48:14;98379.31442364499;;;33.25398641947051;46.09048599984741
71642;BME280;60657;50.122;14.468;2023-08-17T09:51:18;98392.03549717242;;;33.13115129320211;47.28641184100099
71642;BME280;60657;50.122;14.468;2023-08-17T09:54:21;98382.57559403275;;;33.203250171663996;46.08476386663615
71642;BME280;60657;50.122;14.468;2023-08-17T09:57:25;98393.53458257478;;;33.04036011291676;48.39650568398566
71642;BME280;60657;50.122;14.468;2023-08-17T10:00:29;98374.16960873247;;;33.39551384756237;46.71419851987488
71642;BME280;60657;50.122;14.468;2023-08-17T10:03:33;98371.8756134141;;;33.53170061799038;45.722362096589606
71642;BME280;60657;50.122;14.468;2023-08-17T10:06:36;98390.4960732041;;;32.55168993667506;47.37796597238117
71642;BME280;60657;50.122;14.468;2023-08-17T10:09:43;98376.58528745921;;;33.288700694285495;47.32646677347982
71642;BME280;60657;50.122;14.468;2023-08-17T10:12:53;98391.2199854021;;;33.032349126420996;48.14854657816434
71642;BME280;60657;50.122;14.468;2023-08-17T10:16:02;98378.51332332933;;;33.304722667277034;47.42755779354543
71642;BME280;60657;50.122;14.468;2023-08-17T10:19:17;98374.86561473038;;;33.64385442893111;46.861066605630576
71642;BME280;60657;50.122;14.468;2023-08-17T10:22:33;98374.73188451529;;;33.705271992065306;46.431906614785994
71642;BME280;60657;50.122;14.468;2023-08-17T10:25:43;98375.00255775408;;;33.72663462272068;46.62073701075761
71642;BME280;60657;50.122;14.468;2023-08-17T10:28:46;98363.38047194199;;;34.16456855115587;45.82536049439231
71642;BME280;60657;50.122;14.468;2023-08-17T10:31:49;98366.05067682566;;;34.420920119020366;45.57740138857099
71642;BME280;60657;50.122;14.468;2023-08-17T10:34:53;98365.09562532022;;;34.35683222705424;44.974670023651484
71642;BME280;60657;50.122;14.468;2023-08-17T10:37:57;98353.69263226402;;;34.79743648432135;45.28938735027085
71642;BME280;60657;50.122;14.468;2023-08-17T10:41:08;98356.42259884327;;;34.962996871900515;44.5893797207599
71642;BME280;60657;50.122;14.468;2023-08-17T10:44:13;98356.13375489802;;;34.890897993438614;44.106813153276875
71642;BME280;60657;50.122;14.468;2023-08-17T10:47:19;98350.4698491191;;;35.000381475547414;44.03433279926757
71642;BME280;60657;50.122;14.468;2023-08-17T10:50:24;98345.31702570355;;;34.744029907682915;44.061036087586785
71642;BME280;60657;50.122;14.468;2023-08-17T10:53:27;98352.76848295181;;;34.06576638437477;45.51445792324712
71642;BME280;60657;50.122;14.468;2023-08-17T10:56:37;98351.6993431314;;;34.047074082551305;46.07141222247654
71642;BME280;60657;50.122;14.468;2023-08-17T10:59:42;98351.8925842582;;;33.67055771725032;45.871137560082396
71642;BME280;60657;50.122;14.468;2023-08-17T11:02:45;98354.47247141601;;;33.12848096437018;47.50957503624018
71642;BME280;60657;50.122;14.468;2023-08-17T11:05:54;98363.52818627011;;;32.522316319523924;48.27824826428626